Buzzards Bay, MA (02542)

8:21 AM EDT on August 04, 2015 (GMT -0400)
North Falmouth MA | | Change Station
CLOSE
Current Station
Personal Weather Station
Location: North Falmouth, MA
Elevation: 26 ft
Nearby Weather Stations
Active Advisory: Severe Thunderstorm Warning

Elev 26 ft 41.65 °N, 70.62 °W | Updated 59 minutes ago

Scattered Clouds
Scattered Clouds
74.6 °F
Feels Like 73 °F
N
17.0
Wind Variable Wind from SW
Gusts 21.0 mph

Today
High -- | Low -- °F
--% Chance of Precip.
Yesterday
High -- | Low -- °F
Precip. -- in
5:39 AM 7:56 PM
Waning Gibbous, 78% visible
Pressure 29.89 in
Visibility 9.0 miles
Clouds Few 300 ft
Few 3300 ft
Scattered Clouds 7000 ft
Heat Index 73 °F
Dew Point 72 °F
Humidity 93%
Rainfall 0.00 in
Snow Depth Not available.
UV 2 out of 12
Pollen 7.30 out of 12
Air Quality Not available.
Flu Activity Not available.
METAR KFMH 041215Z AUTO 00000KT 9SM VCTS FEW003 FEW033 SCT070 19/18 A2989 RMK AO2 LTG DSNT ALQDS

More Conditions Fewer Conditions

Pressure 29.89 in
Visibility 9.0 miles
Clouds Few 300 ft
Few 3300 ft
Scattered Clouds 7000 ft
Heat Index 73 °F
Dew Point 72 °F
Humidity 93%
Rainfall 0.00 in
Snow Depth Not available.
UV 2 out of 12
Pollen 7.30 out of 12
Air Quality Not available.
Flu Activity Not available.
METAR KFMH 041215Z AUTO 00000KT 9SM VCTS FEW003 FEW033 SCT070 19/18 A2989 RMK AO2 LTG DSNT ALQDS

More Conditions Fewer Conditions

10-Day Weather Forecast

×

Almanac

Astronomy

Aug. 04, 2015 Rise Set
Actual Time
Civil Twilight
Nautical Twilight
Astronomical Twilight
Moon
Length of Visible Light
Length of Day
Tomorrow will be .
, % of the Moon is Illuminated

Today's Extremes

State Highs State Lows

Community

WunderPhotos

Upload Photos

1,843,910 photos uploaded!

WunderBlogs® & News

Nearby

Air Quality

  Air Quality AQ Index Pollutant
Not available.

Snow Depth

Station Depth Elevation

Earthquake Activity

City Distance Mag. Time & Date
Minimum magnitude displayed is 2.5.

Coastal Water Temperatures

Place Temperature

Stations

Nearby Weather Stations

Station Location Temp. Windchill Dew Point Humidity Wind Precip. Elev Updated Type
                   
Severe Thunderstorm Warning
Statement as of 8:17 AM EDT on August 04, 2015

... The Severe Thunderstorm Warning for northeastern Barnstable County
has expired...

the line of storms which prompted the warning have moved out of the
area. Therefore the warning has been allowed to expire.

Lat... Lon 4175 6993 4177 6994 4172 7000 4172 6997
      4166 6998 4165 7027 4172 7028 4179 7002
      4191 7000 4203 7009 4207 7024 4208 7022
      4202 7003
time... Mot... loc 1212z 263deg 47kt 4218 7034 4168 7018


Kjc